createdAt,value
2023-05-02T00:00:03.348Z,16.8307
2023-05-02T00:01:07.374Z,16.9692
2023-05-02T00:02:11.439Z,17.0341
2023-05-02T00:03:15.408Z,16.7853
2023-05-02T00:04:19.383Z,16.6378
2023-05-02T00:05:23.550Z,16.6921
2023-05-02T00:06:27.504Z,16.7833
2023-05-02T00:07:31.419Z,16.8991
2023-05-02T00:08:35.330Z,16.9723
2023-05-02T00:09:39.240Z,16.7684
2023-05-02T00:10:43.140Z,16.6857
2023-05-02T00:11:47.039Z,16.7664
2023-05-02T00:12:50.938Z,16.8824
2023-05-02T00:13:54.824Z,16.9976
2023-05-02T00:14:59.490Z,17.0639
2023-05-02T00:16:03.380Z,16.7853
2023-05-02T00:17:07.338Z,16.6044
2023-05-02T00:18:11.252Z,16.6521
2023-05-02T00:19:15.150Z,16.7593
2023-05-02T00:20:19.131Z,16.8855
2023-05-02T00:21:23.034Z,16.9709
2023-05-02T00:22:26.921Z,16.7415
2023-05-02T00:23:30.814Z,16.5882
2023-05-02T00:24:34.700Z,16.6754
2023-05-02T00:25:38.596Z,16.8181
2023-05-02T00:26:42.475Z,16.9527
2023-05-02T00:27:46.378Z,17.0673
2023-05-02T00:28:50.272Z,16.8677
2023-05-02T00:29:50.732Z,16.5900
2023-05-02T00:30:54.647Z,16.6149
2023-05-02T00:31:58.556Z,16.7553
2023-05-02T00:33:02.493Z,16.9073
2023-05-02T00:34:06.358Z,17.0344
2023-05-02T00:35:10.257Z,16.9609
2023-05-02T00:36:14.152Z,16.7023
2023-05-02T00:37:18.060Z,16.6543
2023-05-02T00:38:21.934Z,16.7110
2023-05-02T00:39:25.822Z,16.8067
2023-05-02T00:40:29.810Z,16.9451
2023-05-02T00:41:33.692Z,16.9024
2023-05-02T00:42:37.606Z,16.7760
2023-05-02T00:43:41.510Z,16.8058
2023-05-02T00:44:45.407Z,16.9100
2023-05-02T00:45:49.325Z,17.0270
2023-05-02T00:46:53.386Z,17.1456
2023-05-02T00:47:57.385Z,16.9511
2023-05-02T00:49:01.319Z,16.5993
2023-05-02T00:50:05.272Z,16.5764
2023-05-02T00:51:09.165Z,16.6659
2023-05-02T00:52:13.047Z,16.7805
2023-05-02T00:53:16.964Z,16.9086
2023-05-02T00:54:20.873Z,16.8979
2023-05-02T00:55:24.791Z,16.7297
2023-05-02T00:56:28.692Z,16.7789
2023-05-02T00:57:32.601Z,16.9042
2023-05-02T00:58:36.512Z,17.0212
2023-05-02T00:59:40.444Z,17.1454
2023-05-02T01:00:44.330Z,17.0372
2023-05-02T01:01:48.286Z,16.6870
2023-05-02T01:02:52.319Z,16.5488
2023-05-02T01:03:56.350Z,16.6458
2023-05-02T01:05:00.254Z,16.7691
2023-05-02T01:06:04.254Z,16.8904
2023-05-02T01:07:08.102Z,16.9389
2023-05-02T01:08:12.127Z,16.7769
2023-05-02T01:09:16.002Z,16.7711
2023-05-02T01:10:19.899Z,16.8270
2023-05-02T01:11:23.812Z,16.9331
2023-05-02T01:12:27.708Z,17.0722
2023-05-02T01:13:31.626Z,17.0288
2023-05-02T01:14:35.520Z,16.6946
2023-05-02T01:15:39.453Z,16.5737
2023-05-02T01:16:43.408Z,16.6774
2023-05-02T01:17:47.338Z,16.8003
2023-05-02T01:18:51.219Z,16.9238
2023-05-02T01:19:55.107Z,16.9890
2023-05-02T01:20:59.001Z,16.7311
2023-05-02T01:22:02.958Z,16.5871
2023-05-02T01:23:07.206Z,16.6774
2023-05-02T01:24:11.103Z,16.7905
2023-05-02T01:25:15.010Z,16.9200
2023-05-02T01:26:18.913Z,17.0166
2023-05-02T01:27:22.831Z,16.7942
2023-05-02T01:28:26.747Z,16.6592
2023-05-02T01:29:30.658Z,16.7469
2023-05-02T01:30:34.568Z,16.8552
2023-05-02T01:31:38.593Z,16.9818
2023-05-02T01:32:42.783Z,17.0695
2023-05-02T01:33:46.667Z,16.8307
2023-05-02T01:34:50.565Z,16.5684
2023-05-02T01:35:54.525Z,16.5933
2023-05-02T01:36:58.416Z,16.7286
2023-05-02T01:38:02.333Z,16.8597
2023-05-02T01:39:06.212Z,16.9936
2023-05-02T01:40:10.133Z,16.8853
2023-05-02T01:41:14.023Z,16.6525
2023-05-02T01:42:17.942Z,16.6750
2023-05-02T01:43:21.856Z,16.7991
2023-05-02T01:44:25.729Z,16.9231
2023-05-02T01:45:29.622Z,17.0535
2023-05-02T01:46:33.577Z,16.9696
2023-05-02T01:47:37.512Z,16.6950
2023-05-02T01:48:41.416Z,16.6483
2023-05-02T01:49:45.316Z,16.7482
2023-05-02T01:50:49.239Z,16.8606
2023-05-02T01:51:53.162Z,16.9858
2023-05-02T01:52:57.093Z,16.9578
2023-05-02T01:54:00.968Z,16.6687
2023-05-02T01:55:04.866Z,16.6314
2023-05-02T01:56:08.748Z,16.7230
2023-05-02T01:57:12.650Z,16.8303
2023-05-02T01:58:16.771Z,16.9645
2023-05-02T01:59:20.649Z,16.9861
2023-05-02T02:00:24.783Z,16.7041
2023-05-02T02:01:28.699Z,16.6187
2023-05-02T02:02:32.586Z,16.7021
2023-05-02T02:03:36.578Z,16.8034
2023-05-02T02:04:40.628Z,16.9298
2023-05-02T02:05:41.605Z,16.9720
2023-05-02T02:06:45.624Z,16.7466
2023-05-02T02:07:49.896Z,16.6874
2023-05-02T02:08:53.782Z,16.7342
2023-05-02T02:09:57.805Z,16.8394
2023-05-02T02:11:01.795Z,16.9689
2023-05-02T02:12:05.712Z,16.9836
2023-05-02T02:13:09.624Z,16.7275
2023-05-02T02:14:13.536Z,16.6285
2023-05-02T02:15:17.444Z,16.7228
2023-05-02T02:16:21.416Z,16.8492
2023-05-02T02:17:25.676Z,16.9718
2023-05-02T02:18:29.851Z,17.0248
2023-05-02T02:19:33.746Z,16.7482
2023-05-02T02:20:37.644Z,16.5975
2023-05-02T02:21:41.519Z,16.6503
2023-05-02T02:22:45.646Z,16.7542
2023-05-02T02:23:49.563Z,16.8697
2023-05-02T02:24:54.405Z,16.9360
2023-05-02T02:25:58.495Z,16.7382
2023-05-02T02:27:02.388Z,16.6959
2023-05-02T02:28:06.280Z,16.7827
2023-05-02T02:29:10.184Z,16.8984
2023-05-02T02:30:14.119Z,17.0297
2023-05-02T02:31:18.093Z,17.0626
2023-05-02T02:32:21.956Z,16.7658
2023-05-02T02:33:25.840Z,16.6015
2023-05-02T02:34:29.726Z,16.6614
2023-05-02T02:35:33.615Z,16.7874
2023-05-02T02:36:37.521Z,16.9275
2023-05-02T02:37:41.404Z,17.0188
2023-05-02T02:38:45.291Z,16.8011
2023-05-02T02:39:49.174Z,16.6572
2023-05-02T02:40:53.051Z,16.6870
2023-05-02T02:41:56.937Z,16.7733
2023-05-02T02:43:00.848Z,16.9008
2023-05-02T02:44:04.726Z,16.9852
2023-05-02T02:45:09.570Z,16.7811
2023-05-02T02:46:13.489Z,16.6870
2023-05-02T02:47:17.350Z,16.7509
2023-05-02T02:48:21.233Z,16.8808
2023-05-02T02:49:25.147Z,16.9976
2023-05-02T02:50:29.025Z,17.0508
2023-05-02T02:51:32.961Z,16.7882
2023-05-02T02:52:37.095Z,16.6044
2023-05-02T02:53:41.001Z,16.6930
2023-05-02T02:54:44.928Z,16.8218
2023-05-02T02:55:49.593Z,16.9393
2023-05-02T02:56:53.485Z,17.0317
2023-05-02T02:57:57.378Z,16.8023
2023-05-02T02:59:01.272Z,16.5593
2023-05-02T03:00:05.390Z,16.5906
2023-05-02T03:01:09.300Z,16.7213
2023-05-02T03:02:13.221Z,16.8601
2023-05-02T03:03:17.169Z,16.9743
2023-05-02T03:04:21.155Z,16.8563
2023-05-02T03:05:25.667Z,16.6291
2023-05-02T03:06:29.627Z,16.6730
2023-05-02T03:07:33.626Z,16.8023
2023-05-02T03:08:37.544Z,16.9342
2023-05-02T03:09:41.454Z,17.0568
2023-05-02T03:10:45.354Z,16.9453
2023-05-02T03:11:49.267Z,16.6298
2023-05-02T03:12:53.188Z,16.5875
2023-05-02T03:13:57.097Z,16.7179
2023-05-02T03:15:01.259Z,16.8574
2023-05-02T03:16:05.181Z,16.9787
2023-05-02T03:17:09.172Z,16.9756
2023-05-02T03:18:13.083Z,16.6870
2023-05-02T03:19:17.279Z,16.6035
2023-05-02T03:20:21.167Z,16.6756
2023-05-02T03:21:25.069Z,16.8063
2023-05-02T03:22:28.954Z,16.9260
2023-05-02T03:23:32.835Z,16.9511
2023-05-02T03:24:36.710Z,16.8011
2023-05-02T03:25:40.614Z,16.8181
2023-05-02T03:26:44.514Z,16.8993
2023-05-02T03:27:48.405Z,17.0074
2023-05-02T03:28:52.396Z,17.1280
2023-05-02T03:29:56.300Z,17.0234
2023-05-02T03:31:00.326Z,16.6438
2023-05-02T03:32:04.407Z,16.5083
2023-05-02T03:33:08.417Z,16.6111
2023-05-02T03:34:12.305Z,16.7758
2023-05-02T03:35:16.196Z,16.9206
2023-05-02T03:36:20.090Z,16.9994
2023-05-02T03:37:24.003Z,16.7506
2023-05-02T03:38:27.913Z,16.6055
2023-05-02T03:39:31.824Z,16.6886
2023-05-02T03:40:35.713Z,16.8072
2023-05-02T03:41:39.595Z,16.9353
2023-05-02T03:42:43.493Z,17.0268
2023-05-02T03:43:47.376Z,16.8154
2023-05-02T03:44:51.276Z,16.6801
2023-05-02T03:45:55.154Z,16.7473
2023-05-02T03:46:59.125Z,16.8641
2023-05-02T03:48:03.135Z,16.9965
2023-05-02T03:49:07.003Z,17.0811
2023-05-02T03:50:07.411Z,16.8441
2023-05-02T03:51:11.308Z,16.5653
2023-05-02T03:52:15.198Z,16.5898
2023-05-02T03:53:19.094Z,16.7248
2023-05-02T03:54:22.984Z,16.8619
2023-05-02T03:55:26.878Z,16.9863
2023-05-02T03:56:30.749Z,16.9046
2023-05-02T03:57:34.690Z,16.6158
2023-05-02T03:58:38.546Z,16.6109
2023-05-02T03:59:42.419Z,16.7537
2023-05-02T04:00:46.316Z,16.8824
2023-05-02T04:01:50.318Z,17.0148
2023-05-02T04:02:54.548Z,16.9892
2023-05-02T04:03:58.512Z,16.6932
2023-05-02T04:05:02.391Z,16.6069
2023-05-02T04:06:06.285Z,16.7333
2023-05-02T04:07:10.170Z,16.8768
2023-05-02T04:08:14.044Z,17.0105
2023-05-02T04:09:17.929Z,17.0526
2023-05-02T04:10:21.824Z,16.7511
2023-05-02T04:11:25.790Z,16.5123
2023-05-02T04:12:29.632Z,16.5739
2023-05-02T04:13:33.523Z,16.7273
2023-05-02T04:14:37.442Z,16.8485
2023-05-02T04:15:41.351Z,16.9732
2023-05-02T04:16:45.302Z,16.8343
2023-05-02T04:17:49.264Z,16.7206
2023-05-02T04:18:53.146Z,16.7740
2023-05-02T04:19:57.037Z,16.8590
2023-05-02T04:21:00.941Z,16.9914
2023-05-02T04:22:04.869Z,17.0766
2023-05-02T04:23:04.965Z,16.8397
2023-05-02T04:24:08.872Z,16.6329
2023-05-02T04:25:12.780Z,16.6547
2023-05-02T04:26:16.689Z,16.7678
2023-05-02T04:27:20.586Z,16.8953
2023-05-02T04:28:24.531Z,17.0181
2023-05-02T04:29:28.421Z,16.8797
2023-05-02T04:30:32.325Z,16.6672
2023-05-02T04:31:36.276Z,16.7248
2023-05-02T04:32:40.277Z,16.8492
2023-05-02T04:33:44.185Z,16.9821
2023-05-02T04:34:48.051Z,17.1029
2023-05-02T04:35:52.213Z,16.9362
2023-05-02T04:36:56.117Z,16.6389
2023-05-02T04:38:00.256Z,16.5924
2023-05-02T04:39:04.173Z,16.7095
2023-05-02T04:40:08.109Z,16.8474
2023-05-02T04:41:12.007Z,16.9814
2023-05-02T04:42:15.914Z,16.9538
2023-05-02T04:43:19.822Z,16.6529
2023-05-02T04:44:23.735Z,16.5648
2023-05-02T04:45:27.873Z,16.6643
2023-05-02T04:46:31.886Z,16.8014
2023-05-02T04:47:35.824Z,16.9184
2023-05-02T04:48:39.723Z,16.9589
2023-05-02T04:49:43.621Z,16.7228
2023-05-02T04:50:47.509Z,16.6656
2023-05-02T04:51:51.407Z,16.7266
2023-05-02T04:52:55.317Z,16.8238
2023-05-02T04:53:59.235Z,16.9605
2023-05-02T04:55:03.133Z,16.9616
2023-05-02T04:56:07.013Z,16.7273
2023-05-02T04:57:11.040Z,16.6870
2023-05-02T04:58:14.964Z,16.7860
2023-05-02T04:59:18.866Z,16.9051
2023-05-02T05:00:19.268Z,17.0359
2023-05-02T05:01:23.180Z,17.0199
2023-05-02T05:02:27.302Z,16.7070
2023-05-02T05:03:31.338Z,16.6004
2023-05-02T05:04:35.232Z,16.6914
2023-05-02T05:05:39.254Z,16.8258
2023-05-02T05:06:43.259Z,16.9558
2023-05-02T05:07:47.125Z,17.0074
2023-05-02T05:08:51.011Z,16.7413
2023-05-02T05:09:54.940Z,16.5735
2023-05-02T05:10:59.125Z,16.6576
2023-05-02T05:12:03.037Z,16.7963
2023-05-02T05:13:07.183Z,16.9220
2023-05-02T05:14:11.111Z,17.0263
2023-05-02T05:15:15.008Z,16.8114
2023-05-02T05:16:18.981Z,16.5679
2023-05-02T05:17:22.920Z,16.5955
2023-05-02T05:18:26.793Z,16.7188
2023-05-02T05:19:30.681Z,16.8423
2023-05-02T05:20:34.562Z,16.9685
2023-05-02T05:23:09.552Z,18.9830
2023-05-02T05:24:11.308Z,17.5057
2023-05-02T05:25:13.017Z,16.5793
2023-05-02T05:26:14.720Z,16.2069
2023-05-02T05:27:16.481Z,16.2648
2023-05-02T05:28:18.187Z,16.5017
2023-05-02T05:29:19.900Z,16.7165
2023-05-02T05:30:21.627Z,16.8472
2023-05-02T05:31:23.348Z,16.7699
2023-05-02T05:32:25.109Z,16.7553
2023-05-02T05:33:26.907Z,16.8237
2023-05-02T05:34:28.530Z,16.9108
2023-05-02T05:35:30.248Z,17.0281
2023-05-02T05:36:31.937Z,17.0606
2023-05-02T05:37:33.653Z,16.7864
2023-05-02T05:38:35.377Z,16.6378
2023-05-02T05:39:37.111Z,16.6863
2023-05-02T05:40:38.820Z,16.7935
2023-05-02T05:41:40.542Z,16.9166
2023-05-02T05:42:42.261Z,17.0269
2023-05-02T05:43:43.970Z,16.8751
2023-05-02T05:44:45.736Z,16.7077
2023-05-02T05:45:47.440Z,16.7467
2023-05-02T05:46:50.024Z,16.8338
2023-05-02T05:47:50.921Z,16.9515
2023-05-02T05:48:52.603Z,17.0682
2023-05-02T05:49:54.321Z,16.9622
2023-05-02T05:50:56.031Z,16.6919
2023-05-02T05:51:57.762Z,16.6808
2023-05-02T05:52:59.482Z,16.7935
2023-05-02T05:54:01.191Z,16.9158
2023-05-02T05:55:02.885Z,17.0439
2023-05-02T05:56:04.609Z,17.0524
2023-05-02T05:57:06.339Z,16.7623
2023-05-02T05:58:08.060Z,16.6409
2023-05-02T05:59:09.784Z,16.7364
2023-05-02T06:00:11.503Z,16.8708
2023-05-02T06:01:13.215Z,16.9985
2023-05-02T06:02:15.001Z,17.0961
2023-05-02T06:03:16.705Z,16.9156
2023-05-02T06:04:18.367Z,16.6241
2023-05-02T06:05:20.105Z,16.6029
2023-05-02T06:06:21.894Z,16.7254
2023-05-02T06:07:23.533Z,16.8778
2023-05-02T06:08:25.264Z,17.0086
2023-05-02T06:09:26.979Z,17.0411
2023-05-02T06:10:28.787Z,16.7399
2023-05-02T06:11:30.415Z,16.5456
2023-05-02T06:12:32.139Z,16.6192
2023-05-02T06:13:33.854Z,16.7775
2023-05-02T06:14:35.586Z,16.9125
2023-05-02T06:15:37.365Z,17.0382
2023-05-02T06:16:39.128Z,16.9538
2023-05-02T06:17:40.747Z,16.6378
2023-05-02T06:18:42.428Z,16.5625
2023-05-02T06:19:44.151Z,16.6765
2023-05-02T06:20:45.892Z,16.8198
2023-05-02T06:21:47.619Z,16.9607
2023-05-02T06:22:49.338Z,17.0382
2023-05-02T06:23:51.053Z,16.8005
2023-05-02T06:24:52.768Z,16.6574
2023-05-02T06:25:54.494Z,16.7134
2023-05-02T06:26:56.231Z,16.8075
2023-05-02T06:27:57.939Z,16.9147
2023-05-02T06:28:59.664Z,17.0222
2023-05-02T06:30:01.623Z,16.8776
2023-05-02T06:31:03.190Z,16.7543
2023-05-02T06:32:04.874Z,16.8250
2023-05-02T06:33:06.584Z,16.9240
2023-05-02T06:34:08.246Z,17.0515
2023-05-02T06:35:09.992Z,17.1565
2023-05-02T06:36:11.661Z,16.9983
2023-05-02T06:37:13.391Z,16.6510
2023-05-02T06:38:15.106Z,16.5803
2023-05-02T06:39:16.827Z,16.6894
2023-05-02T06:40:18.537Z,16.8424
2023-05-02T06:41:20.299Z,16.9936
2023-05-02T06:42:21.986Z,17.0528
2023-05-02T06:43:23.710Z,16.8110
2023-05-02T06:44:25.469Z,16.5503
2023-05-02T06:45:27.165Z,16.5748
2023-05-02T06:46:28.895Z,16.7081
2023-05-02T06:47:30.701Z,16.8502
2023-05-02T06:48:32.319Z,16.9850
2023-05-02T06:49:34.032Z,16.9679
2023-05-02T06:50:35.775Z,16.7112
2023-05-02T06:51:37.503Z,16.6701
2023-05-02T06:52:39.205Z,16.7634
2023-05-02T06:53:40.970Z,16.8722
2023-05-02T06:54:42.659Z,16.9887
2023-05-02T06:55:44.379Z,17.0337
2023-05-02T06:56:46.111Z,16.7814
2023-05-02T06:57:47.822Z,16.6210
2023-05-02T06:58:49.556Z,16.6925
2023-05-02T06:59:51.308Z,16.8127
2023-05-02T07:00:53.005Z,16.9295
2023-05-02T07:01:54.717Z,17.0495
2023-05-02T07:02:56.487Z,16.8946
2023-05-02T07:03:58.196Z,16.7034
2023-05-02T07:04:59.883Z,16.7077
2023-05-02T07:06:01.684Z,16.7983
2023-05-02T07:07:03.333Z,16.9205
2023-05-02T07:08:05.053Z,17.0446
2023-05-02T07:09:06.784Z,16.9825
2023-05-02T07:10:08.505Z,16.7605
2023-05-02T07:11:10.241Z,16.7416
2023-05-02T07:12:11.935Z,16.8188
2023-05-02T07:13:13.653Z,16.9195
2023-05-02T07:14:15.378Z,17.0419
2023-05-02T07:15:17.065Z,17.0269
2023-05-02T07:16:18.846Z,16.7416
2023-05-02T07:17:20.540Z,16.6331
2023-05-02T07:18:22.236Z,16.7102
2023-05-02T07:19:23.954Z,16.8367
2023-05-02T07:20:25.743Z,16.9515
2023-05-02T07:21:27.419Z,17.1604
2023-05-02T07:22:29.115Z,17.5441
2023-05-02T07:23:30.847Z,17.7166
2023-05-02T07:24:32.568Z,17.7801
2023-05-02T07:25:34.279Z,17.8214
2023-05-02T07:26:35.996Z,17.8483
2023-05-02T07:27:37.742Z,17.8534
2023-05-02T07:28:39.453Z,17.8534
2023-05-02T07:29:41.183Z,17.8584
2023-05-02T07:30:42.891Z,17.8623
2023-05-02T07:31:44.668Z,17.8750
2023-05-02T07:32:46.393Z,17.8804
2023-05-02T07:33:48.065Z,17.8730
2023-05-02T07:34:49.758Z,17.8812
2023-05-02T07:35:51.485Z,17.8843
2023-05-02T07:36:53.203Z,17.8857
2023-05-02T07:37:54.997Z,17.8960
2023-05-02T07:38:57.448Z,17.8953
2023-05-02T07:40:01.598Z,17.8904
2023-05-02T07:41:05.779Z,17.9075
2023-05-02T07:42:09.674Z,17.9118
2023-05-02T07:43:13.563Z,17.9238
2023-05-02T07:44:17.438Z,17.9380
2023-05-02T07:45:21.492Z,17.9458
2023-05-02T07:46:25.554Z,17.9445
2023-05-02T07:47:33.434Z,17.9514
2023-05-02T07:48:32.029Z,17.9389
2023-05-02T07:49:35.907Z,17.9309
2023-05-02T07:50:39.823Z,17.9291
2023-05-02T07:51:44.581Z,17.9273
2023-05-02T07:52:48.875Z,17.9429
2023-05-02T07:53:52.278Z,17.9666
2023-05-02T07:54:56.181Z,17.9696
2023-05-02T07:56:00.134Z,17.9794
2023-05-02T07:57:04.148Z,17.9718
2023-05-02T07:58:08.041Z,17.9658
2023-05-02T07:59:12.176Z,17.9821
2023-05-02T08:00:16.135Z,17.9990
2023-05-02T08:01:20.027Z,18.0081
2023-05-02T08:02:25.852Z,17.9997
2023-05-02T08:03:24.800Z,18.0023
2023-05-02T08:04:30.610Z,18.0039
2023-05-02T08:05:29.297Z,17.9974
2023-05-02T08:06:33.252Z,18.0001
2023-05-02T08:07:37.390Z,18.0135
2023-05-02T08:08:41.330Z,18.0201
2023-05-02T08:09:45.243Z,18.0070
2023-05-02T08:10:49.281Z,18.0186
2023-05-02T08:11:53.178Z,18.0281
2023-05-02T08:12:59.384Z,18.0293
2023-05-02T08:13:58.490Z,18.0302
2023-05-02T08:14:58.916Z,17.8023
2023-05-02T08:16:02.914Z,17.1710
2023-05-02T08:17:06.790Z,16.5706
2023-05-02T08:18:10.804Z,16.2402
2023-05-02T08:19:14.726Z,16.1779
2023-05-02T08:20:18.596Z,16.2967
2023-05-02T08:21:22.517Z,16.5152
2023-05-02T08:22:26.390Z,16.6886
2023-05-02T08:23:30.308Z,16.6897
2023-05-02T08:24:34.210Z,16.7342
2023-05-02T08:25:38.156Z,16.8383
2023-05-02T08:26:42.073Z,16.9705
2023-05-02T08:27:45.987Z,17.1269
2023-05-02T08:28:49.890Z,17.1082
2023-05-02T08:29:53.839Z,16.7971
2023-05-02T08:30:57.724Z,16.5815
2023-05-02T08:32:01.728Z,16.6298
2023-05-02T08:33:05.706Z,16.7622
2023-05-02T08:34:09.614Z,16.9004
2023-05-02T08:35:13.493Z,17.0348
2023-05-02T08:36:17.378Z,16.9120
2023-05-02T08:37:21.301Z,16.6910
2023-05-02T08:38:25.186Z,16.6908
2023-05-02T08:39:29.082Z,16.7918
2023-05-02T08:40:41.571Z,16.9191
2023-05-02T08:41:37.461Z,17.0454
2023-05-02T08:42:41.375Z,16.9727
2023-05-02T08:43:45.406Z,16.6805
2023-05-02T08:44:49.298Z,16.6469
2023-05-02T08:45:53.202Z,16.7578
2023-05-02T08:46:57.160Z,16.8817
2023-05-02T08:48:01.146Z,17.0206
2023-05-02T08:49:05.015Z,17.0528
2023-05-02T08:50:09.188Z,16.7667
2023-05-02T08:51:13.087Z,16.6205
2023-05-02T08:52:16.995Z,16.6943
2023-05-02T08:53:20.927Z,16.8043
2023-05-02T08:54:25.025Z,16.9302
2023-05-02T08:55:28.946Z,17.0255
2023-05-02T08:56:32.868Z,16.8347
2023-05-02T08:57:37.097Z,16.7079
2023-05-02T08:58:41.046Z,16.7431
2023-05-02T08:59:44.910Z,16.8450
2023-05-02T09:00:48.831Z,16.9616
2023-05-02T09:01:52.723Z,17.0626
2023-05-02T09:02:56.636Z,16.8864
2023-05-02T09:04:00.609Z,16.6529
2023-05-02T09:05:04.514Z,16.6639
2023-05-02T09:06:08.432Z,16.7773
2023-05-02T09:07:12.328Z,16.9062
2023-05-02T09:08:16.213Z,17.0352
2023-05-02T09:09:20.127Z,16.9226
2023-05-02T09:10:24.039Z,16.6790
2023-05-02T09:11:27.991Z,16.7041
2023-05-02T09:12:32.087Z,16.8181
2023-05-02T09:13:35.996Z,16.9447
2023-05-02T09:14:39.875Z,17.0660
2023-05-02T09:15:43.781Z,17.0252
2023-05-02T09:16:47.793Z,16.7549
2023-05-02T09:17:51.982Z,16.6585
2023-05-02T09:18:55.918Z,16.7408
2023-05-02T09:19:59.936Z,16.8612
2023-05-02T09:21:03.849Z,16.9814
2023-05-02T09:22:07.768Z,17.0212
2023-05-02T09:23:11.682Z,16.7764
2023-05-02T09:24:15.614Z,16.6427
2023-05-02T09:25:19.753Z,16.7277
2023-05-02T09:26:23.675Z,16.8410
2023-05-02T09:27:27.532Z,16.9716
2023-05-02T09:28:31.430Z,17.0544
2023-05-02T09:29:35.349Z,16.8392
2023-05-02T09:30:39.296Z,16.6374
2023-05-02T09:31:55.616Z,16.6901
2023-05-02T09:32:47.748Z,16.8223
2023-05-02T09:33:51.640Z,16.9654
2023-05-02T09:34:55.552Z,17.0773
2023-05-02T09:35:59.438Z,16.9473
2023-05-02T09:37:03.363Z,16.6565
2023-05-02T09:38:07.231Z,16.6120
2023-05-02T09:39:11.132Z,16.7297
2023-05-02T09:40:15.065Z,16.8641
2023-05-02T09:41:18.945Z,16.9856
2023-05-02T09:42:22.858Z,16.9700
2023-05-02T09:43:26.755Z,16.7319
2023-05-02T09:44:30.752Z,16.7028
2023-05-02T09:45:35.362Z,16.8143
2023-05-02T09:46:39.404Z,16.9378
2023-05-02T09:47:43.304Z,17.0660
2023-05-02T09:48:47.162Z,17.0777
2023-05-02T09:49:51.069Z,16.7691
2023-05-02T09:50:54.989Z,16.5724
2023-05-02T09:51:58.890Z,16.6400
2023-05-02T09:53:02.928Z,16.7709
2023-05-02T09:54:06.925Z,16.9040
2023-05-02T09:55:10.789Z,17.0170
2023-05-02T09:56:14.710Z,16.8581
2023-05-02T09:57:18.643Z,16.6472
2023-05-02T09:58:22.535Z,16.6817
2023-05-02T09:59:26.425Z,16.8009
2023-05-02T10:00:30.347Z,16.9200
2023-05-02T10:01:34.269Z,17.0433
2023-05-02T10:02:38.258Z,16.9338
2023-05-02T10:03:42.187Z,16.6403
2023-05-02T10:04:46.144Z,16.6104
2023-05-02T10:05:50.071Z,16.7526
2023-05-02T10:06:53.978Z,16.8757
2023-05-02T10:07:57.893Z,17.0012
2023-05-02T10:09:01.817Z,16.9807
2023-05-02T10:10:05.733Z,16.7411
2023-05-02T10:11:09.633Z,16.7115
2023-05-02T10:12:13.564Z,16.7983
2023-05-02T10:13:17.475Z,16.9231
2023-05-02T10:14:21.491Z,17.0582
2023-05-02T10:15:25.374Z,17.0568
2023-05-02T10:16:29.290Z,16.8047
2023-05-02T10:17:33.550Z,16.7104
2023-05-02T10:18:37.458Z,16.7573
2023-05-02T10:19:41.370Z,16.8521
2023-05-02T10:20:45.257Z,16.9591
2023-05-02T10:21:49.178Z,16.9821
2023-05-02T10:22:53.100Z,16.7736
2023-05-02T10:23:56.993Z,16.7448
2023-05-02T10:25:01.201Z,16.7980
2023-05-02T10:26:05.365Z,16.8930
2023-05-02T10:27:09.295Z,17.0377
2023-05-02T10:28:13.194Z,17.0077
2023-05-02T10:29:17.145Z,16.7184
2023-05-02T10:30:21.039Z,16.6512
2023-05-02T10:31:24.960Z,16.7569
2023-05-02T10:32:29.219Z,16.8855
2023-05-02T10:33:33.125Z,17.0159
2023-05-02T10:34:36.988Z,17.0584
2023-05-02T10:35:40.959Z,16.7882
2023-05-02T10:36:44.826Z,16.6289
2023-05-02T10:37:48.896Z,16.7079
2023-05-02T10:38:52.792Z,16.8319
2023-05-02T10:39:56.693Z,16.9351
2023-05-02T10:41:00.576Z,17.0332
2023-05-02T10:42:04.488Z,16.8537
2023-05-02T10:43:08.414Z,16.7077
2023-05-02T10:44:12.323Z,16.7451
2023-05-02T10:45:16.234Z,16.8543
2023-05-02T10:46:20.189Z,16.9890
2023-05-02T10:47:24.152Z,17.0831
2023-05-02T10:48:28.104Z,16.8706
2023-05-02T10:49:32.029Z,16.5969
2023-05-02T10:50:36.138Z,16.6064
2023-05-02T10:51:40.044Z,16.7355
2023-05-02T10:52:43.951Z,16.8719
2023-05-02T10:53:47.893Z,17.0188
2023-05-02T10:54:51.810Z,16.9560
2023-05-02T10:55:55.717Z,16.6772
2023-05-02T10:56:59.625Z,16.6621
2023-05-02T10:58:03.529Z,16.7578
2023-05-02T10:59:07.435Z,16.8841
2023-05-02T11:00:07.632Z,16.9992
2023-05-02T11:01:11.587Z,17.0010
2023-05-02T11:02:15.708Z,16.7257
2023-05-02T11:03:19.642Z,16.6454
2023-05-02T11:04:23.532Z,16.7553
2023-05-02T11:05:27.399Z,16.8717
2023-05-02T11:06:31.323Z,16.9981
2023-05-02T11:07:35.234Z,17.0337
2023-05-02T11:08:39.167Z,16.8003
2023-05-02T11:09:43.056Z,16.6794
2023-05-02T11:10:46.986Z,16.7591
2023-05-02T11:11:50.899Z,16.8906
2023-05-02T11:12:54.797Z,17.0203
2023-05-02T11:13:58.698Z,17.0893
2023-05-02T11:15:02.790Z,16.8497
2023-05-02T11:16:06.920Z,16.6432
2023-05-02T11:17:10.786Z,16.6705
2023-05-02T11:18:14.811Z,16.8210
2023-05-02T11:19:18.678Z,16.9476
2023-05-02T11:20:22.549Z,17.0555
2023-05-02T11:21:26.442Z,16.8732
2023-05-02T11:22:30.350Z,16.6038
2023-05-02T11:23:34.219Z,16.6334
2023-05-02T11:24:38.142Z,16.7578
2023-05-02T11:25:42.098Z,16.8886
2023-05-02T11:26:45.978Z,17.0141
2023-05-02T11:27:49.917Z,16.9469
2023-05-02T11:28:53.809Z,16.7052
2023-05-02T11:29:57.723Z,16.7104
2023-05-02T11:31:01.614Z,16.8265
2023-05-02T11:32:05.554Z,16.9420
2023-05-02T11:33:09.470Z,17.0608
2023-05-02T11:34:13.333Z,17.0032
2023-05-02T11:35:17.228Z,16.6943
2023-05-02T11:36:21.147Z,16.6320
2023-05-02T11:37:25.049Z,16.7497
2023-05-02T11:38:28.992Z,16.8815
2023-05-02T11:39:32.890Z,17.0105
2023-05-02T11:40:36.799Z,17.0457
2023-05-02T11:41:40.724Z,16.7747
2023-05-02T11:42:44.632Z,16.6380
2023-05-02T11:43:48.542Z,16.7297
2023-05-02T11:44:52.461Z,16.8465
2023-05-02T11:45:56.463Z,16.9665
2023-05-02T11:47:00.385Z,17.0461
2023-05-02T11:48:04.349Z,16.8343
2023-05-02T11:49:09.334Z,16.6625
2023-05-02T11:50:08.754Z,16.7339
2023-05-02T11:51:12.680Z,16.8292
2023-05-02T11:52:16.607Z,16.9549
2023-05-02T11:53:20.512Z,17.0626
2023-05-02T11:54:24.434Z,16.8846
2023-05-02T11:55:28.580Z,16.6518
2023-05-02T11:56:32.467Z,16.6703
2023-05-02T11:57:36.437Z,16.7876
2023-05-02T11:58:40.347Z,16.9300
2023-05-02T11:59:44.259Z,17.0568
2023-05-02T12:00:48.179Z,16.9338
2023-05-02T12:01:52.086Z,16.6756
2023-05-02T12:02:56.186Z,16.6754
2023-05-02T12:04:00.140Z,16.7820
2023-05-02T12:05:04.331Z,16.9020
2023-05-02T12:06:08.516Z,17.0364
2023-05-02T12:07:12.523Z,16.9698
2023-05-02T12:08:16.397Z,16.7186
2023-05-02T12:09:20.299Z,16.6879
2023-05-02T12:10:24.190Z,16.7927
2023-05-02T12:11:28.060Z,16.9184
2023-05-02T12:12:31.975Z,17.0497
2023-05-02T12:13:35.896Z,17.0206
2023-05-02T12:14:39.802Z,16.7041
2023-05-02T12:15:43.737Z,16.5980
2023-05-02T12:16:47.833Z,16.7081
2023-05-02T12:17:51.834Z,16.8483
2023-05-02T12:18:55.715Z,16.9914
2023-05-02T12:19:59.876Z,17.0499
2023-05-02T12:21:03.768Z,16.7878
2023-05-02T12:22:07.673Z,16.5728
2023-05-02T12:23:11.577Z,16.6434
2023-05-02T12:24:15.484Z,16.8027
2023-05-02T12:25:19.384Z,16.9398
2023-05-02T12:26:23.317Z,17.0510
2023-05-02T12:27:27.238Z,16.9082
2023-05-02T12:28:31.145Z,16.6396
2023-05-02T12:29:35.050Z,16.6365
2023-05-02T12:30:38.969Z,16.7475
2023-05-02T12:31:42.877Z,16.8552
2023-05-02T12:32:46.761Z,16.9841
2023-05-02T12:33:50.762Z,16.9560
2023-05-02T12:34:54.903Z,16.8463
2023-05-02T12:35:58.811Z,16.9146
2023-05-02T12:37:02.747Z,16.9885
2023-05-02T12:38:06.705Z,17.1227
2023-05-02T12:39:10.600Z,17.2233
2023-05-02T12:40:14.666Z,17.0016
2023-05-02T12:41:18.570Z,16.6639
2023-05-02T12:42:22.460Z,16.6093
2023-05-02T12:43:26.583Z,16.7195
2023-05-02T12:44:30.436Z,16.8361
2023-05-02T12:45:34.358Z,16.9660
2023-05-02T12:46:38.253Z,16.9798
2023-05-02T12:47:42.199Z,16.7190
2023-05-02T12:48:46.838Z,16.6934